Time;durP1;ratioP1;P1;durP2;ratioP2;P2;SDS_P1;SDS_P2;PMS_P1;PMS_P2;Temp;Humidity;BMP_temperature;BMP_pressure;BME280_temperature;BME280_humidity;BME280_pressure;Samples;Min_cycle;Max_cycle;Signal;HPM_P1;HPM_P2
2021/11/05 00:00:40;;;;;;;4.70;1.15;;;;;;;7.35;100.00;101731.22;4956500;28;20032;-64
2021/11/05 00:03:06;;;;;;;4.70;0.90;;;;;;;7.27;100.00;101733.16;4972520;28;20093;-64
2021/11/05 00:05:31;;;;;;;2.85;0.65;;;;;;;7.20;100.00;101738.50;4975056;28;20109;-64
2021/11/05 00:07:57;;;;;;;3.55;1.10;;;;;;;7.15;100.00;101736.84;4972688;28;20041;-64
2021/11/05 00:10:23;;;;;;;3.03;1.15;;;;;;;7.11;100.00;101740.41;4974764;28;20031;-64
2021/11/05 00:12:50;;;;;;;4.70;1.10;;;;;;;7.01;100.00;101727.41;4972695;28;20061;-64
2021/11/05 00:15:17;;;;;;;3.83;1.23;;;;;;;6.92;100.00;101729.28;4974839;28;20035;-64
2021/11/05 00:17:43;;;;;;;4.88;1.45;;;;;;;6.83;100.00;101732.94;4972744;28;20034;-64
2021/11/05 00:20:09;;;;;;;3.67;1.15;;;;;;;6.72;100.00;101723.44;4974778;28;20030;-64
2021/11/05 00:22:34;;;;;;;4.38;1.35;;;;;;;6.63;100.00;101736.72;4973351;28;20031;-64
2021/11/05 00:25:00;;;;;;;3.25;1.20;;;;;;;6.57;100.00;101734.16;4973237;28;20027;-64
2021/11/05 00:27:26;;;;;;;6.35;1.63;;;;;;;6.52;100.00;101741.25;4972817;28;20034;-65
2021/11/05 00:29:51;;;;;;;3.97;1.20;;;;;;;6.47;100.00;101746.59;4974564;28;20037;-64
2021/11/05 00:32:16;;;;;;;6.20;1.50;;;;;;;6.48;100.00;101750.09;4974339;28;20058;-65
2021/11/05 00:34:42;;;;;;;7.50;1.30;;;;;;;6.54;100.00;101747.38;4972645;28;20046;-64
2021/11/05 00:37:07;;;;;;;6.72;1.33;;;;;;;6.55;100.00;101754.41;4974298;28;20026;-64
2021/11/05 00:39:32;;;;;;;7.25;1.38;;;;;;;6.53;100.00;101754.41;4972266;28;20114;-64
2021/11/05 00:41:59;;;;;;;4.00;1.45;;;;;;;6.50;100.00;101757.06;4973982;28;20027;-64
2021/11/05 00:44:24;;;;;;;7.00;1.67;;;;;;;6.44;100.00;101759.78;4972410;28;20621;-64
2021/11/05 00:46:50;;;;;;;3.47;1.45;;;;;;;6.38;100.00;101766.00;4974002;28;20058;-65
2021/11/05 00:49:16;;;;;;;3.60;1.50;;;;;;;6.36;100.00;101772.19;4972748;28;20074;-64
2021/11/05 00:51:41;;;;;;;6.47;1.70;;;;;;;6.32;100.00;101771.34;4974094;28;20026;-65
2021/11/05 00:54:08;;;;;;;5.70;1.75;;;;;;;6.30;100.00;101778.38;4973737;28;20033;-64
2021/11/05 00:56:33;;;;;;;5.70;1.30;;;;;;;6.31;100.00;101784.50;4972092;28;20475;-64
2021/11/05 00:58:59;;;;;;;6.85;2.10;;;;;;;6.34;100.00;101784.47;4973906;28;20105;-64
2021/11/05 01:01:24;;;;;;;6.65;2.40;;;;;;;6.42;100.00;101779.09;4972132;28;20479;-64
2021/11/05 01:03:50;;;;;;;7.82;2.97;;;;;;;6.49;100.00;101783.41;4974176;28;20041;-65
2021/11/05 01:06:17;;;;;;;5.90;2.35;;;;;;;6.57;100.00;101789.44;4972528;28;20037;-64
2021/11/05 01:08:43;;;;;;;12.93;2.70;;;;;;;6.68;100.00;101784.06;4973846;28;20050;-65
2021/11/05 01:11:09;;;;;;;8.02;2.47;;;;;;;6.79;100.00;101783.88;4972009;28;20476;-64
2021/11/05 01:13:35;;;;;;;9.10;2.45;;;;;;;6.89;100.00;101785.50;4973550;28;20530;-64
2021/11/05 01:16:00;;;;;;;11.85;2.50;;;;;;;6.96;100.00;101788.94;4972347;28;20101;-64
2021/11/05 01:18:26;;;;;;;7.45;2.28;;;;;;;7.03;100.00;101780.94;4954709;29;20134;-64
2021/11/05 01:20:51;;;;;;;8.60;1.60;;;;;;;7.05;100.00;101783.53;4955309;28;20468;-65
2021/11/05 01:23:17;;;;;;;10.93;1.70;;;;;;;7.12;100.00;101784.31;4954333;29;20031;-64
2021/11/05 01:25:43;;;;;;;5.32;1.65;;;;;;;7.14;100.00;101788.66;4954267;29;20082;-64
2021/11/05 01:28:08;;;;;;;8.75;1.80;;;;;;;7.20;100.00;101782.44;4955383;28;20031;-65
2021/11/05 01:30:35;;;;;;;4.32;1.45;;;;;;;7.22;100.00;101792.06;4954320;29;20495;-65
2021/11/05 01:33:06;;;;;;;6.43;1.45;;;;;;;7.25;100.00;101790.25;4955619;28;20106;-64
2021/11/05 01:35:36;;;;;;;4.35;1.20;;;;;;;7.28;100.00;101790.22;4957766;29;20114;-64
2021/11/05 01:38:03;;;;;;;6.00;1.63;;;;;;;7.29;100.00;101784.91;4959196;28;20031;-64
2021/11/05 01:40:29;;;;;;;5.57;1.35;;;;;;;7.31;100.00;101790.16;4957919;29;20030;-64
2021/11/05 01:42:55;;;;;;;4.55;1.20;;;;;;;7.31;100.00;101800.69;4959118;28;20035;-65
2021/11/05 01:45:21;;;;;;;4.45;1.50;;;;;;;7.29;100.00;101790.19;4958054;29;20065;-65
2021/11/05 01:47:46;;;;;;;3.28;1.48;;;;;;;7.31;100.00;101809.44;4958023;28;20059;-69
2021/11/05 01:50:13;;;;;;;4.78;1.30;;;;;;;7.25;100.00;101796.41;4959143;28;20098;-66
2021/11/05 01:52:39;;;;;;;7.47;1.83;;;;;;;7.21;100.00;101800.84;4957768;28;20093;-65
2021/11/05 01:55:05;;;;;;;6.80;1.55;;;;;;;7.14;100.00;101807.09;4958610;28;20027;-65
2021/11/05 01:57:31;;;;;;;4.70;1.40;;;;;;;7.04;100.00;101806.34;4959092;28;20027;-65
2021/11/05 01:59:56;;;;;;;7.40;1.60;;;;;;;6.96;100.00;101812.63;4958031;29;20114;-65
2021/11/05 02:02:21;;;;;;;9.85;1.98;;;;;;;6.88;100.00;101818.00;4957592;29;20514;-64
2021/11/05 02:04:47;;;;;;;4.97;1.48;;;;;;;6.82;100.00;101820.72;4958795;28;20052;-65
2021/11/05 02:07:14;;;;;;;5.28;1.92;;;;;;;6.72;100.00;101817.31;4957704;28;20065;-65
2021/11/05 02:09:41;;;;;;;8.00;1.77;;;;;;;6.62;100.00;101818.34;4975805;28;20554;-65
2021/11/05 02:12:08;;;;;;;8.30;1.60;;;;;;;6.52;100.00;101821.09;4974118;28;20082;-65
2021/11/05 02:14:33;;;;;;;7.43;1.55;;;;;;;6.45;100.00;101821.19;4976177;28;20467;-65
2021/11/05 02:17:02;;;;;;;6.43;2.00;;;;;;;6.35;100.00;101825.69;4976978;28;20115;-65
2021/11/05 02:19:31;;;;;;;4.30;1.55;;;;;;;6.25;100.00;101824.91;4974996;28;20033;-65
2021/11/05 02:21:58;;;;;;;5.32;1.75;;;;;;;6.16;100.00;101830.25;4975210;28;20073;-65
2021/11/05 02:24:26;;;;;;;4.70;1.63;;;;;;;6.04;100.00;101836.53;4976656;28;20430;-65
2021/11/05 02:26:53;;;;;;;8.02;1.90;;;;;;;5.91;100.00;101833.97;4976489;28;20030;-64
2021/11/05 02:29:20;;;;;;;5.15;1.70;;;;;;;5.86;100.00;101830.50;4975954;28;20046;-65
2021/11/05 02:31:46;;;;;;;5.30;1.70;;;;;;;5.82;100.00;101841.06;4976576;28;20106;-65
2021/11/05 02:34:12;;;;;;;3.97;1.50;;;;;;;5.78;100.00;101841.97;4958995;28;20456;-64
2021/11/05 02:36:37;;;;;;;6.15;1.80;;;;;;;5.72;100.00;101846.41;4957120;29;20031;-65
2021/11/05 02:39:07;;;;;;;5.15;1.50;;;;;;;5.67;100.00;101835.06;4957075;29;20023;-64
2021/11/05 02:41:37;;;;;;;4.85;1.45;;;;;;;5.64;100.00;101844.72;4957831;28;20106;-65
2021/11/05 02:44:04;;;;;;;5.53;1.48;;;;;;;5.58;100.00;101840.41;4957903;28;20054;-65
2021/11/05 02:46:29;;;;;;;6.18;1.70;;;;;;;5.54;100.00;101842.16;4956809;28;20106;-65
2021/11/05 02:48:59;;;;;;;6.47;1.80;;;;;;;5.52;100.00;101843.94;4956941;29;20505;-65
2021/11/05 02:51:26;;;;;;;5.80;1.73;;;;;;;5.46;100.00;101844.00;4958844;28;20480;-65
2021/11/05 02:53:51;;;;;;;5.80;1.70;;;;;;;5.42;100.00;101850.13;4956887;29;20030;-65
2021/11/05 02:56:17;;;;;;;7.13;1.80;;;;;;;5.37;100.00;101847.56;4939405;29;20039;-64
2021/11/05 02:58:42;;;;;;;5.45;2.40;;;;;;;5.33;100.00;101851.09;4956800;29;20035;-65
2021/11/05 03:01:08;;;;;;;6.80;2.10;;;;;;;5.34;100.00;101847.56;4958968;28;20019;-65
2021/11/05 03:03:33;;;;;;;5.90;1.80;;;;;;;5.34;100.00;101849.34;4956555;29;20457;-65
2021/11/05 03:05:58;;;;;;;9.73;2.05;;;;;;;5.35;100.00;101861.59;4956852;29;20020;-65
2021/11/05 03:08:24;;;;;;;3.83;1.80;;;;;;;5.30;100.00;101855.50;4956640;29;20393;-66
2021/11/05 03:10:49;;;;;;;5.32;2.17;;;;;;;5.27;100.00;101858.13;4956812;28;20031;-65
2021/11/05 03:13:15;;;;;;;4.40;1.67;;;;;;;5.25;100.00;101858.13;4958053;28;20841;-65
2021/11/05 03:15:40;;;;;;;8.32;1.92;;;;;;;5.25;100.00;101866.00;4956519;29;20066;-65
2021/11/05 03:18:06;;;;;;;7.40;1.70;;;;;;;5.23;100.00;101866.03;4956465;29;20027;-64
2021/11/05 03:20:32;;;;;;;5.25;1.75;;;;;;;5.21;100.00;101870.41;4956383;29;20031;-65
2021/11/05 03:22:58;;;;;;;2.90;1.77;;;;;;;5.20;100.00;101867.81;4958352;28;20027;-63
2021/11/05 03:25:23;;;;;;;6.45;1.60;;;;;;;5.18;100.00;101872.19;4956448;29;20050;-66
2021/11/05 03:27:48;;;;;;;8.68;1.95;;;;;;;5.16;100.00;101863.44;4956030;29;20027;-64
2021/11/05 03:30:15;;;;;;;8.07;1.60;;;;;;;5.17;100.00;101866.06;4956010;29;20028;-65
2021/11/05 03:32:41;;;;;;;4.10;1.58;;;;;;;5.18;100.00;101872.19;4957522;28;20024;-65
2021/11/05 03:35:08;;;;;;;7.57;1.95;;;;;;;5.15;100.00;101875.69;4956913;28;20039;-66
2021/11/05 03:37:34;;;;;;;5.32;1.90;;;;;;;5.12;100.00;101888.84;4956246;29;20023;-64
2021/11/05 03:40:05;;;;;;;6.00;1.70;;;;;;;5.10;100.00;101895.84;4956089;29;20034;-64
2021/11/05 03:42:31;;;;;;;6.13;1.73;;;;;;;5.16;100.00;101898.44;4955728;29;20034;-64
2021/11/05 03:44:56;;;;;;;8.68;2.10;;;;;;;5.26;100.00;101894.03;4957777;28;20035;-64
2021/11/05 03:47:21;;;;;;;7.85;2.13;;;;;;;5.36;100.00;101903.59;4956092;28;20031;-65
2021/11/05 03:49:46;;;;;;;11.02;2.25;;;;;;;5.37;100.00;101900.09;4955870;29;20054;-64
2021/11/05 03:52:12;;;;;;;5.68;2.10;;;;;;;5.39;100.00;101902.69;4956166;29;20482;-65
2021/11/05 03:54:37;;;;;;;5.13;1.75;;;;;;;5.39;100.00;101902.69;4957729;28;20082;-64
2021/11/05 03:57:03;;;;;;;5.55;1.83;;;;;;;5.36;100.00;101915.88;4954582;28;20454;-65
2021/11/05 03:59:28;;;;;;;9.60;2.10;;;;;;;5.31;100.00;101902.75;4955442;29;20020;-64
2021/11/05 04:01:53;;;;;;;6.53;1.60;;;;;;;5.26;100.00;101917.66;4955609;29;20049;-65
2021/11/05 04:04:19;;;;;;;8.35;1.70;;;;;;;5.26;100.00;101915.03;4956672;28;20049;-65
2021/11/05 04:06:45;;;;;;;8.55;2.10;;;;;;;5.30;100.00;101914.13;4956565;28;20031;-68
2021/11/05 04:09:10;;;;;;;7.68;1.90;;;;;;;5.29;100.00;101915.00;4955495;29;20027;-65
2021/11/05 04:11:36;;;;;;;7.78;1.83;;;;;;;5.25;100.00;101939.53;4955338;29;20066;-65
2021/11/05 04:14:01;;;;;;;4.93;1.52;;;;;;;5.20;100.00;101936.06;4955117;29;20437;-68
2021/11/05 04:16:26;;;;;;;8.20;1.90;;;;;;;5.20;100.00;101944.81;4957259;28;20031;-64
2021/11/05 04:18:52;;;;;;;7.38;1.80;;;;;;;5.29;100.00;101943.03;4937676;29;20038;-65
2021/11/05 04:21:17;;;;;;;8.43;2.08;;;;;;;5.40;100.00;101942.09;4955396;29;20115;-65
2021/11/05 04:23:43;;;;;;;8.55;1.88;;;;;;;5.54;100.00;101947.28;4955601;29;20027;-65
2021/11/05 04:26:09;;;;;;;7.18;1.70;;;;;;;5.64;100.00;101948.09;4955900;28;20078;-65
2021/11/05 04:28:35;;;;;;;7.50;1.98;;;;;;;5.72;100.00;101955.94;4955984;28;20155;-65
2021/11/05 04:31:01;;;;;;;5.50;1.70;;;;;;;5.75;100.00;101950.63;4955055;29;20093;-64
2021/11/05 04:33:27;;;;;;;4.60;1.70;;;;;;;5.73;100.00;101957.69;4954997;29;20535;-65
2021/11/05 04:35:52;;;;;;;7.57;1.77;;;;;;;5.74;100.00;101952.41;4954967;29;20147;-65
2021/11/05 04:38:17;;;;;;;8.15;2.30;;;;;;;5.79;100.00;101967.25;4957032;28;20073;-65
2021/11/05 04:40:43;;;;;;;8.38;1.90;;;;;;;5.81;100.00;101970.78;4954883;29;20027;-65
2021/11/05 04:43:08;;;;;;;4.82;1.52;;;;;;;5.79;100.00;101970.75;4954687;29;20031;-65
2021/11/05 04:45:34;;;;;;;5.18;1.70;;;;;;;5.79;100.00;101977.78;4954856;29;20102;-65
2021/11/05 04:48:00;;;;;;;8.05;1.63;;;;;;;5.78;100.00;101974.28;4956760;28;20066;-64
2021/11/05 04:50:25;;;;;;;6.47;1.83;;;;;;;5.72;100.00;101983.06;4954816;29;20076;-65
2021/11/05 04:52:51;;;;;;;8.40;1.50;;;;;;;5.64;100.00;101982.25;4954978;29;20035;-65
2021/11/05 04:55:19;;;;;;;6.57;1.70;;;;;;;5.56;100.00;101990.19;4954634;29;20038;-69
2021/11/05 04:57:45;;;;;;;6.93;1.90;;;;;;;5.52;100.00;101988.44;4938456;28;20394;-65
2021/11/05 05:00:11;;;;;;;6.97;1.73;;;;;;;5.49;100.00;101993.72;4955502;28;20373;-65
2021/11/05 05:02:37;;;;;;;5.22;1.65;;;;;;;5.48;100.00;101998.97;4954373;29;20094;-65
2021/11/05 05:05:04;;;;;;;6.20;1.73;;;;;;;5.51;100.00;101993.69;4954655;29;20032;-65
2021/11/05 05:07:29;;;;;;;9.40;2.28;;;;;;;5.56;100.00;102002.44;4954246;29;20027;-65
2021/11/05 05:09:54;;;;;;;7.03;1.52;;;;;;;5.62;100.00;102005.03;4956554;28;20031;-65
2021/11/05 05:12:20;;;;;;;4.68;1.40;;;;;;;5.64;100.00;102011.16;4954641;28;20040;-65
2021/11/05 05:14:46;;;;;;;8.98;1.90;;;;;;;5.65;100.00;102009.41;4954232;29;20023;-65
2021/11/05 05:17:11;;;;;;;9.07;2.20;;;;;;;5.69;100.00;102016.38;4954272;29;20043;-65
2021/11/05 05:19:36;;;;;;;8.80;2.00;;;;;;;5.77;100.00;102025.09;4956422;28;20027;-66
2021/11/05 05:22:02;;;;;;;6.25;1.75;;;;;;;5.81;100.00;102018.94;4954557;28;20090;-65
2021/11/05 05:24:27;;;;;;;5.88;1.88;;;;;;;5.72;100.00;102029.53;4954479;29;20431;-65
2021/11/05 05:26:53;;;;;;;4.78;2.00;;;;;;;5.64;100.00;102024.31;4954702;29;20031;-65
2021/11/05 05:29:19;;;;;;;6.55;1.80;;;;;;;5.58;100.00;102024.34;4954764;28;20118;-65
2021/11/05 05:31:44;;;;;;;8.52;1.80;;;;;;;5.52;100.00;102027.84;4972321;28;20078;-65
2021/11/05 05:34:09;;;;;;;9.48;2.20;;;;;;;5.52;100.00;102032.25;4973374;28;20375;-65
2021/11/05 05:36:35;;;;;;;11.88;2.13;;;;;;;5.48;100.00;102033.13;4973305;28;20027;-65
2021/11/05 05:39:00;;;;;;;7.22;1.98;;;;;;;5.45;100.00;102036.66;4973723;28;20029;-66
2021/11/05 05:41:25;;;;;;;8.60;2.60;;;;;;;5.50;100.00;102045.38;4971666;28;20031;-65
2021/11/05 05:43:50;;;;;;;6.25;2.00;;;;;;;5.48;100.00;102049.75;4973857;28;20069;-65
2021/11/05 05:46:16;;;;;;;10.80;2.40;;;;;;;5.43;100.00;102041.03;4972976;28;20042;-65
2021/11/05 05:48:41;;;;;;;10.02;2.30;;;;;;;5.39;100.00;102044.56;4973298;28;20023;-65
2021/11/05 05:51:06;;;;;;;9.02;2.30;;;;;;;5.37;100.00;102051.56;4972002;28;20018;-66
2021/11/05 05:53:32;;;;;;;7.90;2.20;;;;;;;5.33;100.00;102052.44;4973622;28;20482;-65
2021/11/05 05:55:57;;;;;;;8.38;2.90;;;;;;;5.28;100.00;102055.13;4973348;28;20054;-65
2021/11/05 05:58:22;;;;;;;7.80;2.50;;;;;;;5.24;100.00;102058.59;4971712;28;20063;-65
2021/11/05 06:00:48;;;;;;;8.50;2.55;;;;;;;5.21;100.00;102071.75;4973192;28;20023;-66
2021/11/05 06:03:14;;;;;;;6.68;2.20;;;;;;;5.16;100.00;102066.50;4971440;28;20054;-65
2021/11/05 06:05:40;;;;;;;11.55;2.60;;;;;;;5.14;100.00;102067.38;4973205;28;20104;-66
2021/11/05 06:08:06;;;;;;;8.55;3.08;;;;;;;5.14;100.00;102064.75;4971741;28;20031;-66
2021/11/05 06:10:32;;;;;;;6.03;2.50;;;;;;;5.15;100.00;102077.03;4971633;28;20113;-66
2021/11/05 06:12:57;;;;;;;5.10;2.40;;;;;;;5.16;100.00;102084.88;4964875;28;20042;-66
2021/11/05 06:15:23;;;;;;;9.55;3.08;;;;;;;5.17;100.00;102084.00;4953595;29;20031;-67
2021/11/05 06:17:48;;;;;;;12.80;3.22;;;;;;;5.17;100.00;102091.91;4953547;29;20102;-67
2021/11/05 06:20:14;;;;;;;11.50;2.70;;;;;;;5.19;100.00;102099.75;4960840;28;20031;-66
2021/11/05 06:22:39;;;;;;;9.50;2.70;;;;;;;5.22;100.00;102094.53;4976514;28;20262;-67
2021/11/05 06:25:05;;;;;;;7.28;3.03;;;;;;;5.26;100.00;102104.13;4970209;28;20076;-65
2021/11/05 06:27:30;;;;;;;9.75;2.80;;;;;;;5.36;100.00;102103.22;4971435;28;20035;-66
2021/11/05 06:29:56;;;;;;;10.20;2.97;;;;;;;5.46;100.00;102103.19;4964480;28;20034;-65
2021/11/05 06:32:22;;;;;;;8.20;2.55;;;;;;;5.55;100.00;102116.28;4956796;29;20028;-66
2021/11/05 06:34:48;;;;;;;9.55;2.72;;;;;;;5.64;100.00;102112.75;4958976;28;20059;-65
2021/11/05 06:37:13;;;;;;;8.30;2.70;;;;;;;5.72;100.00;102116.25;4976246;28;20479;-65
2021/11/05 06:39:39;;;;;;;8.75;3.10;;;;;;;5.74;100.00;102119.72;4967013;28;20066;-66
2021/11/05 06:42:05;;;;;;;9.85;3.95;;;;;;;5.75;100.00;102121.47;4976280;28;20033;-66
2021/11/05 06:44:30;;;;;;;15.65;3.75;;;;;;;5.78;100.00;102121.50;4973711;28;20514;-66
2021/11/05 06:46:57;;;;;;;10.25;4.00;;;;;;;5.79;100.00;102133.72;4975474;28;20035;-66
2021/11/05 06:49:23;;;;;;;18.33;4.25;;;;;;;5.78;100.00;102131.13;4973974;28;20077;-69
2021/11/05 06:51:53;;;;;;;15.85;3.70;;;;;;;5.76;100.00;102140.78;4975272;28;20479;-65
2021/11/05 06:54:19;;;;;;;16.00;4.38;;;;;;;5.72;100.00;102139.91;4975094;28;20035;-65
2021/11/05 06:56:44;;;;;;;13.77;4.32;;;;;;;5.70;100.00;102150.44;4938790;28;20043;-66
2021/11/05 06:59:09;;;;;;;14.55;4.00;;;;;;;5.69;100.00;102151.31;4974896;28;20035;-64
2021/11/05 07:01:35;;;;;;;12.98;4.13;;;;;;;5.72;100.00;102158.31;4973663;28;20061;-68
2021/11/05 07:04:00;;;;;;;15.90;3.75;;;;;;;5.79;100.00;102159.16;4963052;28;20059;-64
2021/11/05 07:06:25;;;;;;;19.75;3.72;;;;;;;5.90;100.00;102166.09;4957367;28;20043;-66
2021/11/05 07:08:51;;;;;;;14.65;4.45;;;;;;;6.05;100.00;102165.22;4956581;28;20028;-64
2021/11/05 07:11:16;;;;;;;19.80;4.50;;;;;;;6.16;100.00;102164.28;4960605;28;20113;-68
2021/11/05 07:13:42;;;;;;;16.92;5.32;;;;;;;6.17;100.00;102168.66;4958100;28;20047;-67
2021/11/05 07:16:07;;;;;;;34.95;8.50;;;;;;;6.18;100.00;102175.69;4972745;28;20031;-65
2021/11/05 07:18:33;;;;;;;29.48;6.28;;;;;;;6.14;100.00;102180.06;4956766;28;20467;-67
2021/11/05 07:21:04;;;;;;;23.30;5.80;;;;;;;6.11;100.00;102187.97;4956483;28;20042;-65
2021/11/05 07:23:31;;;;;;;12.77;4.22;;;;;;;6.07;100.00;102194.13;4972337;28;20034;-65
2021/11/05 07:26:00;;;;;;;26.05;5.30;;;;;;;6.02;100.00;102203.78;4974836;28;20027;-65
2021/11/05 07:28:26;;;;;;;16.13;5.10;;;;;;;5.95;100.00;102200.28;4967894;28;20054;-65
2021/11/05 07:30:51;;;;;;;13.75;4.68;;;;;;;5.95;100.00;102202.91;4973083;28;20506;-65
2021/11/05 07:33:17;;;;;;;16.90;5.07;;;;;;;6.00;100.00;102214.31;4971744;28;20039;-65
2021/11/05 07:35:42;;;;;;;15.82;5.25;;;;;;;6.06;100.00;102211.69;4975181;28;20034;-65
2021/11/05 07:38:07;;;;;;;19.40;4.95;;;;;;;6.17;100.00;102211.63;4964687;28;20037;-64
2021/11/05 07:40:32;;;;;;;20.58;6.22;;;;;;;6.33;100.00;102214.16;4974821;28;20046;-64
2021/11/05 07:42:58;;;;;;;16.88;5.43;;;;;;;6.51;100.00;102228.97;4955276;28;20047;-64
2021/11/05 07:45:25;;;;;;;12.18;5.00;;;;;;;6.58;100.00;102232.47;4963726;28;20368;-64
2021/11/05 07:47:55;;;;;;;14.75;5.38;;;;;;;6.55;100.00;102239.50;4960967;28;20090;-64
2021/11/05 07:50:20;;;;;;;16.13;4.88;;;;;;;6.53;100.00;102240.38;4972234;28;20488;-64
2021/11/05 07:52:46;;;;;;;17.17;5.05;;;;;;;6.48;100.00;102245.66;4970037;28;20113;-65
2021/11/05 07:55:12;;;;;;;17.55;4.75;;;;;;;6.43;100.00;102255.34;4973199;28;20045;-65
2021/11/05 07:57:37;;;;;;;10.10;4.47;;;;;;;6.47;100.00;102250.94;4963161;28;20027;-64
2021/11/05 08:00:08;;;;;;;11.55;4.90;;;;;;;6.53;100.00;102254.44;4958094;28;20067;-64
2021/11/05 08:02:33;;;;;;;13.27;5.00;;;;;;;6.52;100.00;102255.31;4955511;29;20039;-64
2021/11/05 08:04:59;;;;;;;16.60;4.78;;;;;;;6.52;100.00;102264.94;4955427;29;20078;-65
2021/11/05 08:07:24;;;;;;;15.43;5.00;;;;;;;6.52;100.00;102257.06;4955961;28;20026;-65
2021/11/05 08:09:49;;;;;;;16.02;5.30;;;;;;;6.53;100.00;102271.97;4967976;28;20466;-64
2021/11/05 08:12:15;;;;;;;14.68;5.13;;;;;;;6.65;100.00;102281.56;4974120;28;20383;-63
2021/11/05 08:14:40;;;;;;;14.88;4.93;;;;;;;6.82;100.00;102278.84;4974802;28;20467;-64
2021/11/05 08:17:06;;;;;;;10.20;5.07;;;;;;;7.07;100.00;102278.69;4973602;28;20113;-65
2021/11/05 08:19:32;;;;;;;15.57;5.13;;;;;;;7.27;100.00;102276.75;4974044;28;20058;-64
2021/11/05 08:21:57;;;;;;;13.18;5.28;;;;;;;7.46;100.00;102281.91;4973365;28;20077;-64
2021/11/05 08:24:23;;;;;;;15.15;4.88;;;;;;;7.65;100.00;102283.47;4973669;28;20031;-64
2021/11/05 08:26:49;;;;;;;10.73;4.28;;;;;;;7.80;100.00;102292.13;4974060;28;20483;-64
2021/11/05 08:29:15;;;;;;;19.23;4.80;;;;;;;7.85;100.00;102299.09;4974307;28;20031;-65
2021/11/05 08:31:41;;;;;;;18.52;5.32;;;;;;;7.78;100.00;102292.13;4973689;28;20029;-67
2021/11/05 08:34:07;;;;;;;13.43;4.40;;;;;;;7.91;100.00;102303.44;4971777;28;20034;-65
2021/11/05 08:36:32;;;;;;;14.40;5.47;;;;;;;8.08;100.00;102305.03;4973507;28;20026;-63
2021/11/05 08:38:58;;;;;;;14.32;5.50;;;;;;;8.26;100.00;102306.56;4973568;28;20034;-65
2021/11/05 08:41:24;;;;;;;10.60;4.47;;;;;;;8.59;100.00;102307.09;4972876;28;20023;-65
2021/11/05 08:43:52;;;;;;;10.65;3.58;;;;;;;9.12;100.00;102315.19;4969477;28;20039;-65
2021/11/05 08:46:20;;;;;;;10.45;3.70;;;;;;;9.89;100.00;102313.03;4963433;28;20026;-63
2021/11/05 08:48:51;;;;;;;10.65;3.47;;;;;;;10.40;95.50;102315.59;4970013;28;20498;-63
2021/11/05 08:51:17;;;;;;;7.78;3.17;;;;;;;11.34;91.31;102327.66;4970960;28;20019;-65
2021/11/05 08:53:42;;;;;;;7.10;2.50;;;;;;;12.66;88.83;102320.63;4967768;28;20526;-65
2021/11/05 08:56:08;;;;;;;10.27;3.72;;;;;;;13.66;78.21;102327.22;4961673;28;20045;-63
2021/11/05 08:58:35;;;;;;;9.52;3.55;;;;;;;14.62;74.66;102322.94;4968696;28;20030;-62
2021/11/05 09:01:00;;;;;;;6.22;2.65;;;;;;;15.19;70.60;102334.06;4960242;28;20406;-63
2021/11/05 09:03:26;;;;;;;9.65;3.10;;;;;;;15.84;66.49;102332.28;4970803;28;20047;-65
2021/11/05 09:05:51;;;;;;;8.80;2.50;;;;;;;16.20;67.34;102331.59;4954837;28;20032;-64
2021/11/05 09:08:16;;;;;;;7.25;1.70;;;;;;;16.58;64.87;102337.94;4958629;28;20030;-64
2021/11/05 09:10:42;;;;;;;7.53;1.63;;;;;;;17.08;63.75;102345.38;4968473;28;20050;-64
2021/11/05 09:13:08;;;;;;;7.78;2.22;;;;;;;18.12;58.01;102342.91;4971757;28;20023;-65
2021/11/05 09:15:34;;;;;;;5.30;1.80;;;;;;;17.73;57.79;102355.59;4968282;28;20023;-65
2021/11/05 09:18:03;;;;;;;4.35;1.77;;;;;;;16.37;60.42;102359.38;4956071;28;20031;-64
2021/11/05 09:20:30;;;;;;;2.33;0.93;;;;;;;15.08;62.71;102359.38;4969874;28;20023;-64
2021/11/05 09:22:56;;;;;;;3.15;1.50;;;;;;;14.05;67.67;102371.16;4972917;28;20106;-64
2021/11/05 09:25:21;;;;;;;4.88;1.02;;;;;;;13.17;70.43;102385.56;4971155;28;20431;-63
2021/11/05 09:27:47;;;;;;;2.75;1.10;;;;;;;12.49;74.47;102386.66;4973492;28;20459;-64
2021/11/05 09:30:13;;;;;;;2.30;0.80;;;;;;;12.14;76.26;102381.41;4968900;28;20033;-65
2021/11/05 09:32:39;;;;;;;3.55;1.15;;;;;;;11.78;79.48;102390.25;4962471;28;20038;-66
2021/11/05 09:35:06;;;;;;;2.70;0.88;;;;;;;11.53;80.53;102391.75;4967222;28;20039;-64
2021/11/05 09:37:33;;;;;;;3.35;1.25;;;;;;;11.37;82.12;102391.22;4958045;28;20114;-62
2021/11/05 09:39:58;;;;;;;3.28;1.02;;;;;;;11.27;83.59;102404.72;4970989;28;20034;-64
2021/11/05 09:42:24;;;;;;;4.65;1.13;;;;;;;11.96;82.93;102407.53;4973204;28;20023;-63
2021/11/05 09:44:50;;;;;;;8.00;2.75;;;;;;;13.36;76.55;102403.59;4973600;28;20046;-65
2021/11/05 09:47:15;;;;;;;6.28;2.10;;;;;;;14.07;74.09;102409.28;4971604;28;20089;-65
2021/11/05 09:49:41;;;;;;;6.97;2.30;;;;;;;13.68;72.73;102412.34;4955501;28;20046;-64
2021/11/05 09:52:07;;;;;;;4.53;1.10;;;;;;;12.97;75.71;102422.50;4969503;28;20456;-65
2021/11/05 09:54:35;;;;;;;7.80;1.65;;;;;;;12.70;78.26;102425.03;4959142;28;20051;-64
2021/11/05 09:57:02;;;;;;;6.60;1.40;;;;;;;13.59;75.68;102429.50;4962078;28;20055;-63
2021/11/05 09:59:28;;;;;;;2.72;0.93;;;;;;;14.40;71.72;102438.34;4966718;28;20106;-65
2021/11/05 10:01:53;;;;;;;5.63;1.20;;;;;;;15.39;67.17;102438.22;4977111;28;20097;-63
2021/11/05 10:04:19;;;;;;;5.65;1.10;;;;;;;16.34;64.76;102440.59;4960951;28;20031;-65
2021/11/05 10:07:05;;;;;;;3.17;1.20;;;;;;;17.63;58.46;102440.91;4959025;28;20042;-65
2021/11/05 10:09:45;;;;;;;6.70;1.17;;;;;;;17.49;57.54;102432.69;4973187;28;20034;-64
2021/11/05 10:12:16;;;;;;;3.90;1.10;;;;;;;17.35;57.50;102441.38;4975773;28;20066;-65
2021/11/05 10:14:43;;;;;;;5.68;1.17;;;;;;;17.78;56.78;102438.41;4959966;28;20030;-64
2021/11/05 10:17:13;;;;;;;4.22;1.00;;;;;;;18.25;57.12;102440.53;4970794;28;20038;-66
2021/11/05 10:19:52;;;;;;;4.53;1.23;;;;;;;18.32;56.30;102446.44;4972567;28;20023;-66
2021/11/05 10:22:40;;;;;;;5.95;1.02;;;;;;;18.38;53.23;102437.22;4975707;28;20506;-65
2021/11/05 10:25:22;;;;;;;3.38;1.17;;;;;;;18.34;53.06;102452.59;4973407;28;20030;-65
2021/11/05 10:28:12;;;;;;;4.13;1.30;;;;;;;18.34;54.92;102447.22;4972954;28;20039;-65
2021/11/05 10:31:03;;;;;;;4.97;1.35;;;;;;;17.59;54.92;102452.72;4976830;28;20030;-65
2021/11/05 10:33:49;;;;;;;4.95;1.20;;;;;;;15.58;60.16;102464.19;4976517;28;20106;-66
2021/11/05 10:36:20;;;;;;;6.40;1.60;;;;;;;14.42;64.62;102468.47;4973913;28;20081;-65
2021/11/05 10:38:59;;;;;;;4.43;1.10;;;;;;;13.57;68.80;102473.94;4973283;28;20479;-66
2021/11/05 10:41:27;;;;;;;6.30;1.60;;;;;;;13.19;69.36;102475.94;4975784;28;20482;-63
2021/11/05 10:43:58;;;;;;;4.63;1.10;;;;;;;13.12;69.53;102475.25;4961938;28;20027;-66
2021/11/05 10:46:33;;;;;;;4.28;1.02;;;;;;;13.45;68.96;102469.84;4973276;28;20027;-65
2021/11/05 10:49:20;;;;;;;2.55;0.82;;;;;;;14.52;65.41;102472.53;4972197;28;20027;-65
2021/11/05 10:51:46;;;;;;;6.18;1.00;;;;;;;15.78;61.22;102471.41;4968240;28;20039;-65
2021/11/05 10:54:11;;;;;;;5.60;1.05;;;;;;;16.94;57.56;102470.97;4974092;28;20529;-65
2021/11/05 10:56:38;;;;;;;4.63;0.98;;;;;;;17.34;55.63;102467.28;4957145;29;20167;-65
2021/11/05 10:59:08;;;;;;;4.20;0.93;;;;;;;17.46;56.22;102476.53;4964959;28;20042;-64
2021/11/05 11:01:42;;;;;;;6.88;1.63;;;;;;;17.74;54.39;102469.84;4957468;28;20026;-63
2021/11/05 11:04:10;;;;;;;5.85;1.30;;;;;;;18.25;52.59;102477.19;4961579;28;20169;-65
2021/11/05 11:06:42;;;;;;;4.60;1.25;;;;;;;18.37;51.08;102481.06;4975829;28;20031;-66
2021/11/05 11:09:10;;;;;;;7.70;1.33;;;;;;;19.09;51.14;102474.56;4971626;28;20030;-66
2021/11/05 11:11:37;;;;;;;3.53;1.30;;;;;;;19.19;50.23;102482.09;4974354;28;20042;-66
2021/11/05 11:14:05;;;;;;;5.82;1.83;;;;;;;17.57;53.23;102491.22;4969967;28;20030;-64
2021/11/05 11:16:40;;;;;;;7.30;1.75;;;;;;;16.55;55.32;102489.56;4975837;28;20105;-64
2021/11/05 11:19:08;;;;;;;8.20;1.70;;;;;;;15.75;59.76;102494.69;4975474;28;20023;-65
2021/11/05 11:21:42;;;;;;;5.75;1.27;;;;;;;14.67;62.11;102492.50;4975215;28;20109;-64